»·PEaware :: N3037S KSDM-KSDM

N3037S :: KSDM-KSDM

FLIGHT INFORMATION

Flight Status: Arrived
Operator: Privately registered:
United States
More flights under this callsign
Pilot: Jari J. (4222)
Aircraft: PIPER J-3 CUB
(J3)
More flights by this aircraft type
Origin: KSDM Brown Mun
United States
Destination: KSDM Brown Mun
United States
More flights between these airports :: More routes between these airports
Route: +
File this flight plan on PilotEdge
Remarks:
Altitude:
(Current/Filed)
0ft
Speed:
(Current/Filed)
0kts
Departed: 08-Jan-16 11:30 AM
Arrived: 08-Jan-16 12:02 PM
Distance/Time
Traveled:
1nm/0:32
Distance/Time
To Go:
Arrived

Flight Plot

Page will automatically refresh every two minutes.


Map Options




Map Legend


Flown Route
Filed Route
Departure Airport
Arrival Airport
Navaid (VOR, NDB)
Fix

Horizontal Profiles

Position Reports

Time Latitude Longitude Heading Altitude Ground
Speed
08-Jan-16 10:58 32.571304 -116.992842 108 529ft 0kts
08-Jan-16 10:59 32.571304 -116.992842 108 529ft 0kts
08-Jan-16 11:00 32.571304 -116.992842 108 529ft 0kts
08-Jan-16 11:01 32.571304 -116.992841 108 529ft 0kts
08-Jan-16 11:02 32.571303 -116.992840 108 529ft 0kts
08-Jan-16 11:03 32.571303 -116.992839 108 529ft 0kts
08-Jan-16 11:04 32.571303 -116.992838 108 529ft 0kts
08-Jan-16 11:05 32.571303 -116.992837 108 529ft 0kts
08-Jan-16 11:06 32.571302 -116.992837 108 529ft 0kts
08-Jan-16 11:07 32.571302 -116.992836 109 529ft 0kts
08-Jan-16 11:08 32.571302 -116.992835 109 529ft 0kts
08-Jan-16 11:09 32.571302 -116.992834 109 529ft 0kts
08-Jan-16 11:10 32.571301 -116.992834 109 529ft 0kts
08-Jan-16 11:12 32.571301 -116.992833 109 529ft 0kts
08-Jan-16 11:13 32.571301 -116.992833 109 529ft 0kts
08-Jan-16 11:14 32.571301 -116.992833 109 529ft 0kts
08-Jan-16 11:15 32.571794 -116.992400 57 529ft 6kts
08-Jan-16 11:16 32.571398 -116.989773 104 529ft 9kts
08-Jan-16 11:17 32.571071 -116.986394 95 529ft 12kts
08-Jan-16 11:18 32.570554 -116.982905 94 529ft 14kts
08-Jan-16 11:19 32.570161 -116.977829 94 529ft 15kts
08-Jan-16 11:20 32.569838 -116.973638 95 529ft 20kts
08-Jan-16 11:21 32.569574 -116.968487 18 529ft 8kts
08-Jan-16 11:22 32.570369 -116.968208 309 529ft 0kts
08-Jan-16 11:23 32.570376 -116.968219 309 529ft 0kts
08-Jan-16 11:24 32.570543 -116.968346 344 529ft 8kts
08-Jan-16 11:25 32.572040 -116.972782 279 586ft 48kts
08-Jan-16 11:26 32.573552 -116.987496 273 1046ft 43kts
08-Jan-16 11:27 32.575248 -117.001669 323 1399ft 47kts
08-Jan-16 11:28 32.583964 -116.992024 88 1682ft 53kts
08-Jan-16 11:30 32.584034 -116.973754 87 2191ft 61kts
08-Jan-16 11:31 32.584496 -116.952842 96 2391ft 64kts
08-Jan-16 11:32 32.580383 -116.930455 112 2318ft 68kts
08-Jan-16 11:33 32.571486 -116.910091 120 2381ft 72kts
08-Jan-16 11:34 32.562612 -116.890204 119 2852ft 69kts
08-Jan-16 11:35 32.554046 -116.868833 115 3404ft 75kts
08-Jan-16 11:36 32.556830 -116.845510 75 3669ft 65kts
08-Jan-16 11:37 32.556616 -116.823450 117 3716ft 71kts
08-Jan-16 11:38 32.548857 -116.800850 109 3801ft 82kts
08-Jan-16 11:39 32.541517 -116.775164 111 3873ft 77kts
08-Jan-16 11:39 32.536227 -116.754873 111 3736ft 71kts
08-Jan-16 11:40 32.529447 -116.731423 105 3633ft 73kts
08-Jan-16 11:41 32.522316 -116.710351 130 3818ft 63kts
08-Jan-16 11:42 32.522058 -116.687455 71 4430ft 77kts
08-Jan-16 11:43 32.533434 -116.667287 37 4256ft 66kts
08-Jan-16 11:44 32.547286 -116.652645 28 4188ft 75kts
08-Jan-16 11:45 32.560690 -116.634986 60 4148ft 81kts
08-Jan-16 11:46 32.574853 -116.621482 348 3711ft 62kts
08-Jan-16 11:47 32.588538 -116.623441 330 3673ft 49kts
08-Jan-16 11:48 32.601409 -116.629522 337 3659ft 55kts
08-Jan-16 11:49 32.616510 -116.635933 340 3702ft 62kts
08-Jan-16 11:50 32.636769 -116.639253 351 2799ft 74kts
08-Jan-16 11:51 32.646436 -116.642179 169 2853ft 68kts
08-Jan-16 11:52 32.632968 -116.640485 139 2744ft 39kts
08-Jan-16 11:53 32.637649 -116.639241 345 2818ft 74kts
08-Jan-16 11:54 32.645521 -116.641428 181 2753ft 51kts
08-Jan-16 11:55 32.636766 -116.640636 171 2578ft 7kts
08-Jan-16 11:56 32.636804 -116.640330 89 2576ft 0kts
08-Jan-16 11:57 32.571306 -116.992864 283 526ft 0kts

Navigation Log

Ident Type
Flight plan parsing failed, navigation log unavailable